地図

経路データ

SID SEASON NUMBER BASIN SUBBASIN NAME ISO_TIME NATURE LAT LON WMO_WIND WMO_PRES WMO_AGENCY TRACK_TYPE DIST2LAND LANDFALL IFLAG USA_AGENCY USA_ATCF_ID USA_LAT USA_LON USA_RECORD USA_STATUS USA_WIND USA_PRES USA_SSHS USA_R34_NE USA_R34_SE USA_R34_SW USA_R34_NW USA_R50_NE USA_R50_SE USA_R50_SW USA_R50_NW USA_R64_NE USA_R64_SE USA_R64_SW USA_R64_NW USA_POCI USA_ROCI USA_RMW USA_EYE TOKYO_LAT TOKYO_LON TOKYO_GRADE TOKYO_WIND TOKYO_PRES TOKYO_R50_DIR TOKYO_R50_LONG TOKYO_R50_SHORT TOKYO_R30_DIR TOKYO_R30_LONG TOKYO_R30_SHORT TOKYO_LAND CMA_LAT CMA_LON CMA_CAT CMA_WIND CMA_PRES HKO_LAT HKO_LON HKO_CAT HKO_WIND HKO_PRES NEWDELHI_LAT NEWDELHI_LON NEWDELHI_GRADE NEWDELHI_WIND NEWDELHI_PRES NEWDELHI_CI NEWDELHI_DP NEWDELHI_POCI REUNION_LAT REUNION_LON REUNION_TYPE REUNION_WIND REUNION_PRES REUNION_TNUM REUNION_CI REUNION_RMW REUNION_R34_NE REUNION_R34_SE REUNION_R34_SW REUNION_R34_NW REUNION_R50_NE REUNION_R50_SE REUNION_R50_SW REUNION_R50_NW REUNION_R64_NE REUNION_R64_SE REUNION_R64_SW REUNION_R64_NW BOM_LAT BOM_LON BOM_TYPE BOM_WIND BOM_PRES BOM_TNUM BOM_CI BOM_RMW BOM_R34_NE BOM_R34_SE BOM_R34_SW BOM_R34_NW BOM_R50_NE BOM_R50_SE BOM_R50_SW BOM_R50_NW BOM_R64_NE BOM_R64_SE BOM_R64_SW BOM_R64_NW BOM_ROCI BOM_POCI BOM_EYE BOM_POS_METHOD BOM_PRES_METHOD NADI_LAT NADI_LON NADI_CAT NADI_WIND NADI_PRES WELLINGTON_LAT WELLINGTON_LON WELLINGTON_WIND WELLINGTON_PRES DS824_LAT DS824_LON DS824_STAGE DS824_WIND DS824_PRES TD9636_LAT TD9636_LON TD9636_STAGE TD9636_WIND TD9636_PRES TD9635_LAT TD9635_LON TD9635_WIND TD9635_PRES TD9635_ROCI NEUMANN_LAT NEUMANN_LON NEUMANN_CLASS NEUMANN_WIND NEUMANN_PRES MLC_LAT MLC_LON MLC_CLASS MLC_WIND MLC_PRES USA_GUST BOM_GUST BOM_GUST_PER REUNION_GUST REUNION_GUST_PER USA_SEAHGT USA_SEARAD_NE USA_SEARAD_SE USA_SEARAD_SW USA_SEARAD_NW STORM_SPEED STORM_DIR
1993185N09137 1993 38 WP MM LEWIS 1993-07-04 06:00:00 NR 9.10000 137.000 main 1109 1080 O_____________ jtwc_wp WP081993 9.10000 137.000 15 -1 10 252
1993185N09137 1993 38 WP MM LEWIS 1993-07-04 09:00:00 NR 8.94010 136.505 main 1080 1042 P_____________ WP081993 8.94010 136.505 15 -1 10 253
1993185N09137 1993 38 WP MM LEWIS 1993-07-04 12:00:00 NR 8.80000 136.000 main 1042 986 O_____________ jtwc_wp WP081993 8.80000 136.000 15 -1 10 256
1993185N09137 1993 38 WP MM LEWIS 1993-07-04 15:00:00 NR 8.69249 135.485 main 986 930 P_____________ WP081993 8.69249 135.485 15 -1 10 259
1993185N09137 1993 38 WP MM LEWIS 1993-07-04 18:00:00 NR 8.60000 135.000 main 930 886 O_____________ jtwc_wp WP081993 8.60000 135.000 15 -1 9 258
1993185N09137 1993 38 WP MM LEWIS 1993-07-04 21:00:00 NR 8.49993 134.578 main 886 841 P_____________ WP081993 8.49993 134.578 15 -1 8 256
1993185N09137 1993 38 WP MM LEWIS 1993-07-05 00:00:00 NR 8.40000 134.200 main 841 807 O_____________ jtwc_wp WP081993 8.40000 134.200 15 -1 8 254
1993185N09137 1993 38 WP MM LEWIS 1993-07-05 03:00:00 NR 8.29245 133.843 main 796 762 P_____________ WP081993 8.29245 133.843 15 -1 7 254
1993185N09137 1993 38 WP MM LEWIS 1993-07-05 06:00:00 NR 8.20000 133.500 main 762 728 O_____________ jtwc_wp WP081993 8.20000 133.500 15 -1 7 258
1993185N09137 1993 38 WP MM LEWIS 1993-07-05 09:00:00 NR 8.14247 133.150 main 728 684 P_____________ WP081993 8.14247 133.150 15 -1 7 262
1993185N09137 1993 38 WP MM LEWIS 1993-07-05 12:00:00 NR 8.10000 132.800 main 684 651 O_____________ jtwc_wp WP081993 8.10000 132.800 15 -1 7 262
1993185N09137 1993 38 WP MM LEWIS 1993-07-05 15:00:00 NR 8.04993 132.465 main 651 607 P_____________ WP081993 8.04993 132.465 15 -1 7 262
1993185N09137 1993 38 WP MM LEWIS 1993-07-05 18:00:00 NR 8.00000 132.100 main 607 562 O_____________ jtwc_wp WP081993 8.00000 132.100 15 -1 8 261
1993185N09137 1993 38 WP MM LEWIS 1993-07-05 21:00:00 NR 7.92750 131.665 main 562 507 P_____________ WP081993 7.92750 131.665 17 -1 9 264
1993185N09137 1993 38 WP MM LEWIS 1993-07-06 00:00:00 NR 7.90000 131.200 main 507 463 O_____________ jtwc_wp WP081993 7.90000 131.200 20 -1 9 272
1993185N09137 1993 38 WP MM LEWIS 1993-07-06 03:00:00 NR 7.96245 130.750 main 464 410 P_____________ WP081993 7.96245 130.750 20 -1 9 283
1993185N09137 1993 38 WP MM LEWIS 1993-07-06 06:00:00 NR 8.10000 130.300 main 410 368 O_____________ jtwc_wp WP081993 8.10000 130.300 20 -1 10 288
1993185N09137 1993 38 WP MM LEWIS 1993-07-06 09:00:00 NR 8.26250 129.835 main 359 321 P_____________ WP081993 8.26250 129.835 22 -1 10 294
1993185N09137 1993 38 WP MM LEWIS 1993-07-06 12:00:00 NR 8.50000 129.400 main 321 291 O_____________ jtwc_wp WP081993 8.50000 129.400 25 -1 10 304
1993185N09137 1993 38 WP MM LEWIS 1993-07-06 15:00:00 NR 8.81998 129.013 main 291 265 P_____________ WP081993 8.81998 129.013 25 -1 10 315
1993185N09137 1993 38 WP MM LEWIS 1993-07-06 18:00:00 NR 9.20000 128.700 main 267 254 O_____________ jtwc_wp WP081993 9.20000 128.700 25 -1 9 326
1993185N09137 1993 38 WP MM LEWIS 1993-07-06 21:00:00 NR 9.59993 128.485 main 256 226 P_____________ WP081993 9.59993 128.485 27 -1 8 319
1993185N09137 1993 38 WP MM LEWIS 1993-07-07 00:00:00 TS 9.76667 128.200 1006 tokyo main 229 206 OOO___________ jtwc_wp WP081993 10.0000 128.300 30 -1 9.30000 128.000 2 1006 0 0 0 9.30000 128.000 1 23 1006 7 306
1993185N09137 1993 38 WP MM LEWIS 1993-07-07 03:00:00 TS 10.0063 127.909 main 206 196 PPP___________ WP081993 10.3650 128.072 30 -1 9.72006 127.745 2 1006 0 0 9.57506 127.745 1 23 1006 8 312
1993185N09137 1993 38 WP MM LEWIS 1993-07-07 06:00:00 TS 10.2800 127.620 1006 tokyo main 196 180 OOO___________ jtwc_wp WP081993 10.7000 127.800 30 -1 10.1000 127.500 2 1006 0 0 0 9.90000 127.500 1 23 1006 8 315
1993185N09137 1993 38 WP MM LEWIS 1993-07-07 09:00:00 TS 10.5766 127.334 main 169 142 PPP___________ WP081993 11.0150 127.472 30 -1 10.4149 127.265 2 1007 0 0 10.2999 127.265 1 23 1006 9 317
1993185N09137 1993 38 WP MM LEWIS 1993-07-07 12:00:00 TS 10.9000 127.033 1008 tokyo main 131 100 OOO___________ jtwc_wp WP081993 11.3000 127.100 30 -1 10.7000 127.000 2 1008 0 0 0 10.7000 127.000 1 23 1006 9 315
1993185N09137 1993 38 WP MM LEWIS 1993-07-07 15:00:00 TS 11.1882 126.707 main 100 77 PPP___________ WP081993 11.5649 126.730 30 -1 10.9924 126.695 2 1007 0 0 11.0074 126.695 1 23 1006 9 308
1993185N09137 1993 38 WP MM LEWIS 1993-07-07 18:00:00 TS 11.4667 126.300 1006 tokyo main 77 32 OOO___________ jtwc_wp WP081993 11.8000 126.300 30 -1 11.3000 126.300 2 1006 0 0 0 11.3000 126.300 1 23 1006 11 302
1993185N09137 1993 38 WP MM LEWIS 1993-07-07 21:00:00 TS 11.7567 125.782 main 34 0 PPP___________ WP081993 12.0000 125.780 32 -1 11.6425 125.780 2 1007 0 0 11.6275 125.787 1 23 1005 12 299
1993185N09137 1993 38 WP MM LEWIS 1993-07-08 00:00:00 TS 12.0667 125.200 1008 tokyo main 0 0 OOO___________ jtwc_wp WP081993 12.2000 125.200 35 0 12.0000 125.200 2 1008 0 0 0 12.0000 125.200 1 23 1004 13 301
1993185N09137 1993 38 WP MM LEWIS 1993-07-08 03:00:00 TS 12.4343 124.626 main 0 0 PPP___________ WP081993 12.4422 124.637 35 0 12.3806 124.640 2 1006 0 0 12.4800 124.600 1 26 1003 13 301
1993185N09137 1993 38 WP MM LEWIS 1993-07-08 06:00:00 TS 12.7615 124.038 1004 tokyo main 0 0 OOOO__________ jtwc_wp WP081993 12.7000 124.000 35 0 12.7000 124.100 2 1004 0 0 0 12.9000 124.000 1 29 1002 12.7000 124.100 TD 25 1000 13 295
1993185N09137 1993 38 WP MM LEWIS 1993-07-08 09:00:00 TS 12.9872 123.426 35 1000 tokyo main 0 0 POPP__________ WP081993 12.9575 123.230 37 0 12.9000 123.600 3 35 1000 0 9 30 30 0 13.0949 123.427 1 29 1001 13.0056 123.471 TD 27 997 13 290
1993185N09137 1993 38 WP MM LEWIS 1993-07-08 12:00:00 TS 13.2200 122.767 35 998 tokyo main 10 0 OOOO__________ jtwc_wp WP081993 13.2000 122.400 40 0 13.2000 122.900 3 35 998 0 9 30 30 0 13.2000 122.900 1 29 1000 13.3000 122.900 TD 30 995 12 290
1993185N09137 1993 38 WP MM LEWIS 1993-07-08 15:00:00 TS 13.4105 122.239 main 24 24 PPPP__________ WP081993 13.3848 121.592 42 0 13.3459 122.460 3 35 998 0 9 30 30 13.3269 122.502 1 29 1000 13.5843 122.402 TD 30 995 12 290
1993185N09137 1993 38 WP MM LEWIS 1993-07-08 18:00:00 TS 13.6250 121.650 35 998 tokyo main 24 0 OOOO__________ jtwc_wp WP081993 13.6000 120.800 45 0 13.5000 122.000 3 35 998 0 9 30 30 0 13.5000 122.000 1 29 1000 13.9000 121.800 TD 30 995 15 291
1993185N09137 1993 38 WP MM LEWIS 1993-07-08 21:00:00 TS 13.9503 120.807 main 0 0 PPPP__________ WP081993 13.9123 120.035 47 0 13.8630 121.145 3 37 998 0 9 30 30 13.7480 121.145 1 33 999 14.2778 120.902 TD 30 995 19 293
1993185N09137 1993 38 WP MM LEWIS 1993-07-09 00:00:00 TS 14.3500 119.900 40 998 tokyo main 46 46 OOOO__________ jtwc_wp WP081993 14.3000 119.300 50 0 14.3000 120.200 3 40 998 0 9 30 30 0 14.1000 120.200 2 38 998 14.7000 119.900 TD 30 995 18 297
1993185N09137 1993 38 WP MM LEWIS 1993-07-09 03:00:00 TS 14.7939 119.114 main 107 107 PPPP__________ WP081993 14.7497 118.600 52 0 14.6919 119.442 3 40 997 0 9 35 35 14.5845 119.435 2 38 996 15.1497 118.977 TD 30 995 18 301
1993185N09137 1993 38 WP MM LEWIS 1993-07-09 06:00:00 TS 15.2500 118.350 40 996 tokyo main 159 159 OOOO__________ jtwc_wp WP081993 15.2000 117.900 55 0 15.1000 118.700 3 40 996 0 9 40 40 0 15.1000 118.700 2 38 995 15.6000 118.100 TD 30 995 17 300
1993185N09137 1993 38 WP MM LEWIS 1993-07-09 09:00:00 TS 15.6628 117.557 main 227 227 PPPP__________ WP081993 15.5648 117.157 57 0 15.5573 117.865 3 42 993 0 9 65 65 15.5146 117.922 2 43 992 16.0145 117.285 TD 35 992 17 297
1993185N09137 1993 38 WP MM LEWIS 1993-07-09 12:00:00 TS 16.0500 116.750 45 990 tokyo main 310 310 OOOO__________ jtwc_wp WP081993 15.9000 116.400 60 0 16.0000 117.000 3 45 990 0 9 90 90 0 15.9000 117.100 3 48 990 16.4000 116.500 TS 40 990 17 296
1993185N09137 1993 38 WP MM LEWIS 1993-07-09 15:00:00 TS 16.4198 115.921 main 408 408 PPPP__________ WP081993 16.2498 115.642 62 0 16.3647 116.142 3 45 990 0 9 105 105 16.2999 116.207 3 48 990 16.7648 115.692 TS 40 990 17 295
1993185N09137 1993 38 WP MM LEWIS 1993-07-09 18:00:00 TS 16.7750 115.100 45 990 tokyo main 498 454 OOOO__________ jtwc_wp WP081993 16.6000 114.900 65 1 16.7000 115.300 3 45 990 0 9 120 120 0 16.7000 115.300 3 48 990 17.1000 114.900 TS 40 990 17 295
1993185N09137 1993 38 WP MM LEWIS 1993-07-09 21:00:00 TS 17.1358 114.323 main 444 358 PPPP__________ WP081993 16.9496 114.200 70 1 17.0570 114.500 3 47 987 0 9 120 120 17.1145 114.442 3 48 987 17.4220 114.150 TS 42 987 16 295
1993185N09137 1993 38 WP MM LEWIS 1993-07-10 00:00:00 TS 17.4750 113.550 50 985 tokyo main 358 267 OOOO__________ jtwc_wp WP081993 17.3000 113.500 75 1 17.4000 113.700 4 50 985 0 9 120 120 0 17.5000 113.600 3 48 985 17.7000 113.400 TS 45 985 17 293
1993185N09137 1993 38 WP MM LEWIS 1993-07-10 03:00:00 TS 17.7962 112.721 main 257 181 PPPP__________ WP081993 17.6798 112.758 80 1 17.7301 112.828 4 52 982 0 9 135 135 17.8451 112.713 3 48 985 17.9300 112.585 TS 47 982 17 290
1993185N09137 1993 38 WP MM LEWIS 1993-07-10 06:00:00 TS 18.0500 111.925 55 980 tokyo main 167 107 OOOO__________ jtwc_wp WP081993 18.0000 112.000 85 2 18.0000 112.000 4 55 980 9 30 30 9 150 150 0 18.1000 111.900 3 48 985 18.1000 111.800 STS 50 980 15 286
1993185N09137 1993 38 WP MM LEWIS 1993-07-10 09:00:00 TS 18.2065 111.234 main 99 49 PPPP__________ WP081993 18.1949 111.235 85 2 18.1794 111.320 4 57 977 9 35 35 9 160 160 18.2369 111.262 3 53 980 18.2146 111.120 STS 52 977 13 281
1993185N09137 1993 38 WP MM LEWIS 1993-07-10 12:00:00 TS 18.3000 110.600 60 975 tokyo main 49 0 OOOO__________ jtwc_wp WP081993 18.3000 110.500 85 2 18.3000 110.700 4 60 975 9 40 40 9 170 170 0 18.3000 110.700 3 58 975 18.3000 110.500 STS 55 975 12 278
1993185N09137 1993 38 WP MM LEWIS 1993-07-10 15:00:00 TS 18.3823 109.964 main 0 0 PPPP__________ WP081993 18.3647 109.827 82 1 18.4148 110.050 4 60 975 9 40 40 9 170 170 18.3497 110.107 3 58 977 18.3999 109.870 STS 47 980 12 277
1993185N09137 1993 38 WP MM LEWIS 1993-07-10 18:00:00 TS 18.4500 109.350 60 975 tokyo main 0 0 OOOO__________ jtwc_wp WP081993 18.4000 109.200 80 1 18.5000 109.400 4 60 975 9 40 40 9 170 170 0 18.4000 109.500 3 58 980 18.5000 109.300 TS 40 985 12 277
1993185N09137 1993 38 WP MM LEWIS 1993-07-10 21:00:00 TS 18.5212 108.732 main 0 0 PPPP__________ WP081993 18.4500 108.563 77 1 18.5501 108.712 4 57 977 9 35 35 9 160 160 18.4851 108.828 3 58 980 18.5997 108.827 TS 35 987 11 278
1993185N09137 1993 38 WP MM LEWIS 1993-07-11 00:00:00 TS 18.6000 108.175 55 980 tokyo main 52 52 OOOO__________ jtwc_wp WP081993 18.5000 108.000 75 1 18.6000 108.100 4 55 980 9 30 30 9 150 150 0 18.6000 108.200 3 58 980 18.7000 108.400 TD 30 990 10 280
1993185N09137 1993 38 WP MM LEWIS 1993-07-11 03:00:00 TS 18.6998 107.705 main 105 105 PPPP__________ WP081993 18.5497 107.562 72 1 18.6923 107.633 4 52 982 9 9 135 135 18.7573 107.690 3 53 982 18.8000 107.935 TD 30 990 8 284
1993185N09137 1993 38 WP MM LEWIS 1993-07-11 06:00:00 TS 18.8000 107.325 50 985 tokyo main 123 107 OOOO__________ jtwc_wp WP081993 18.6000 107.200 70 1 18.8000 107.300 4 50 985 0 9 120 120 0 18.9000 107.300 3 48 985 18.9000 107.500 TD 30 990 7 286
1993185N09137 1993 38 WP MM LEWIS 1993-07-11 09:00:00 TS 18.8824 107.013 main 107 94 PPPP__________ WP081993 18.6499 106.835 67 1 18.9073 107.077 4 50 985 0 9 120 120 18.9648 107.012 3 48 985 19.0074 107.127 TD 32 987 6 285
1993185N09137 1993 38 WP MM LEWIS 1993-07-11 12:00:00 TS 18.9500 106.750 50 985 tokyo main 103 80 OOOO__________ jtwc_wp WP081993 18.7000 106.500 65 1 19.0000 106.900 4 50 985 0 9 120 120 0 19.0000 106.800 3 48 985 19.1000 106.800 TS 35 985 5 284
1993185N09137 1993 38 WP MM LEWIS 1993-07-11 15:00:00 TS 19.0037 106.491 main 80 53 PPPP__________ WP081993 18.7499 106.192 60 0 19.0575 106.665 4 50 985 0 9 120 120 19.0499 106.607 3 48 985 19.1574 106.500 TS 37 985 5 281
1993185N09137 1993 38 WP MM LEWIS 1993-07-11 18:00:00 TS 19.0500 106.225 50 985 tokyo main 47 30 OOOO__________ jtwc_wp WP081993 18.8000 105.900 55 0 19.1000 106.400 4 50 985 0 9 120 120 0 19.1000 106.400 3 48 985 19.2000 106.200 TS 40 985 5 281
1993185N09137 1993 38 WP MM LEWIS 1993-07-11 21:00:00 TS 19.0998 105.954 main 30 0 PPPP__________ WP081993 18.8499 105.607 50 0 19.1421 106.160 4 50 985 0 9 120 120 19.1422 106.167 3 43 987 19.2648 105.880 TS 40 985 6 279
1993185N09137 1993 38 WP MM LEWIS 1993-07-12 00:00:00 TS 19.1400 105.607 50 985 tokyo main 0 0 OOOO__________ jtwc_wp WP081993 18.9000 105.300 45 0 19.2000 105.800 4 50 985 0 9 120 120 0 19.2000 105.800 2 38 990 19.3000 105.500 TS 40 985 8 277
1993185N09137 1993 38 WP MM LEWIS 1993-07-12 03:00:00 TS 19.2023 105.114 main 0 0 PPPP__________ WP081993 18.9574 104.965 40 0 19.3076 105.210 4 45 988 0 9 110 110 19.3076 105.210 2 38 990 19.2704 105.027 TS 35 990 10 276
1993185N09137 1993 38 WP MM LEWIS 1993-07-12 06:00:00 TS 19.2500 104.533 40 992 tokyo main 0 0 OOOO__________ jtwc_wp WP081993 19.0000 104.600 35 0 19.4000 104.500 3 40 992 0 9 100 100 0 19.4000 104.500 2 38 990 19.2000 104.500 TD 30 995 11 272
1993185N09137 1993 38 WP MM LEWIS 1993-07-12 09:00:00 TS 19.2477 103.937 main 0 0 PPP___________ WP081993 19.0000 104.207 32 -1 19.4079 103.740 3 995 0 9 19.4228 103.792 2 33 992 TD 11 268
1993185N09137 1993 38 WP MM LEWIS 1993-07-12 12:00:00 TS 19.2222 103.411 998 tokyo main 0 0 OOO___________ jtwc_wp WP081993 19.0000 103.800 30 -1 19.4000 103.100 2 998 0 0 0 19.4000 103.100 1 29 995 8 270
1993185N09137 1993 38 WP MM LEWIS 1993-07-12 15:00:00 TS 19.2459 103.091 main 0 0 PP____________ WP081993 19.0423 103.415 27 -1 19.4496 102.768 2 998 0 0 1 6 280
1993185N09137 1993 38 WP MM LEWIS 1993-07-12 18:00:00 TS 19.3286 102.771 998 tokyo main 0 0 OO____________ jtwc_wp WP081993 19.1000 103.000 25 -1 19.5000 102.600 2 998 0 0 0 6 284
1993185N09137 1993 38 WP MM LEWIS 1993-07-12 21:00:00 TS 19.3893 102.463 main 0 0 PP____________ WP081993 19.1529 102.520 22 -1 19.5074 102.435 2 998 0 0 5 281
1993185N09137 1993 38 WP MM LEWIS 1993-07-13 00:00:00 TS 19.4250 102.225 998 tokyo main 0 0 OO____________ jtwc_wp WP081993 19.2000 102.000 20 -1 19.5000 102.300 2 998 0 0 0 3 291
1993185N09137 1993 38 WP MM LEWIS 1993-07-13 03:00:00 TS 19.4975 102.155 main 0 0 _P____________ WP081993 -1 19.4975 102.155 2 999 0 0 2 289
1993185N09137 1993 38 WP MM LEWIS 1993-07-13 06:00:00 TS 19.5000 102.000 1000 tokyo main 0 _O____________ -1 19.5000 102.000 2 1000 0 0 0 3 271

デジタル台風データ・検索

IBTrACS Databaseについて

本データベースは、米国NOAAが公開する1842年以降の世界の熱帯低気圧のベストトラックデータアーカイブInternational Best Track Archive for Climate Stewardship (IBTrACS)を、ウェブで閲覧しやすい形式に変換したものです。

最終更新日:2021-12-03